Etoile Des Vents — FGH2038 — position and weather

sailwx.info

Track history (hours):
 
Tides and Currents Weather Stations Pressure Air Temp Water Temp Dewpoint Dewpoint Depression Visibility Wind Speed Wind Dir Waves Ship Positions

Etoile Des Vents

Last reported at 2018-May-24 18:12 UTC. Time now 2018-May-27 12:03 UTC.
Position N 47°43' W 003°22'.

Length 13 m.

Type: Sailing vessel. MMSI: 227071280.

Date/timePositionNaut miles runAvg speedWind from/ knotsBaromVisibWave heightAir tempDewpointWater temp
2018-May-24 18:12N 47°43' W 003°22'0 0.0
2018-May-24 18:00N 47°43' W 003°22'0 0.0
2018-May-24 17:30N 47°43' W 003°22'0 0.0
2018-May-24 17:00N 47°43' W 003°22'0 0.0
2018-May-24 16:30N 47°43' W 003°22'0 0.0
2018-May-24 16:00N 47°43' W 003°22'0 0.0
2018-May-24 15:29N 47°43' W 003°22'0 0.8
2018-May-24 15:00N 47°43' W 003°22'2 4.3
2018-May-24 14:30N 47°41' W 003°24'3 5.0
2018-May-24 14:00N 47°39' W 003°24'3 5.2
2018-May-24 13:30N 47°41' W 003°22'  
2018-May-21 16:21N 47°43' W 003°22'0 1.3
2018-May-21 16:00N 47°43' W 003°22'2 4.9
2018-May-21 15:31N 47°41' W 003°24'2 3.9
2018-May-21 15:01N 47°40' W 003°27'2 3.4
2018-May-21 14:30N 47°40' W 003°29'1 1.1
2018-May-21 13:58N 47°40' W 003°30'2 3.9
2018-May-21 13:30N 47°40' W 003°27'2 3.7
2018-May-21 13:00N 47°39' W 003°25'3 5.8
2018-May-21 12:30N 47°42' W 003°23'1 2.7
2018-May-21 11:58N 47°43' W 003°22'0 0.0
2018-May-20 15:32N 47°43' W 003°22'0 0.0
2018-May-20 15:29N 47°43' W 003°22'0 0.7
2018-May-20 15:00N 47°43' W 003°22'3 5.3
2018-May-20 14:30N 47°41' W 003°24'2 3.3
2018-May-20 13:59N 47°39' W 003°25'2 4.3
2018-May-20 13:29N 47°41' W 003°23'2 3.2
2018-May-20 13:00N 47°42' W 003°22'1 2.1
2018-May-20 12:28N 47°43' W 003°22'0 0.0
2018-May-19 16:47N 47°43' W 003°22'0 0.0
2018-May-19 16:29N 47°43' W 003°22'0 0.0
2018-May-19 16:00N 47°43' W 003°22'0 0.4
2018-May-19 15:31N 47°43' W 003°22'2 3.1
2018-May-19 15:01N 47°42' W 003°22'3 6.0
2018-May-19 14:30N 47°39' W 003°24'2 3.6
2018-May-19 14:00N 47°39' W 003°27'1 1.2
2018-May-19 13:30N 47°40' W 003°27'1 2.5
2018-May-19 13:00N 47°41' W 003°26'2 4.0
2018-May-19 12:30N 47°42' W 003°23'2 3.7
2018-May-19 12:00N 47°43' W 003°22'  
2018-May-15 14:40N 47°43' W 003°22'0 0.0
2018-May-15 14:28N 47°43' W 003°22'0 0.0
2018-May-15 13:58N 47°43' W 003°22'0 0.5
2018-May-15 13:30N 47°43' W 003°22'3 6.1
2018-May-15 13:00N 47°40' W 003°24'1 1.2
2018-May-15 12:30N 47°40' W 003°23'3 5.6
2018-May-15 12:00N 47°43' W 003°22'0 0.6
2018-May-15 11:30N 47°43' W 003°22'  
Track history (hours):
 
Tides and Currents Weather Stations Pressure Air Temp Water Temp Dewpoint Dewpoint Depression Visibility Wind Speed Wind Dir Waves Ship Positions

Etoile Des Vents

Last reported at 2018-May-24 18:12 UTC. Time now 2018-May-27 12:03 UTC.
Position N 47°43' W 003°22'.

Length 13 m.

Type: Sailing vessel. MMSI: 227071280.

Date/timePositionNaut miles runAvg speedWind from/ knotsBaromVisibWave heightAir tempDewpointWater temp
2018-May-24 18:12N 47°43' W 003°22'0 0.0
2018-May-24 18:00N 47°43' W 003°22'0 0.0
2018-May-24 17:30N 47°43' W 003°22'0 0.0
2018-May-24 17:00N 47°43' W 003°22'0 0.0
2018-May-24 16:30N 47°43' W 003°22'0 0.0
2018-May-24 16:00N 47°43' W 003°22'0 0.0
2018-May-24 15:29N 47°43' W 003°22'0 0.8
2018-May-24 15:00N 47°43' W 003°22'2 4.3
2018-May-24 14:30N 47°41' W 003°24'3 5.0
2018-May-24 14:00N 47°39' W 003°24'3 5.2
2018-May-24 13:30N 47°41' W 003°22'  
2018-May-21 16:21N 47°43' W 003°22'0 1.3
2018-May-21 16:00N 47°43' W 003°22'2 4.9
2018-May-21 15:31N 47°41' W 003°24'2 3.9
2018-May-21 15:01N 47°40' W 003°27'2 3.4
2018-May-21 14:30N 47°40' W 003°29'1 1.1
2018-May-21 13:58N 47°40' W 003°30'2 3.9
2018-May-21 13:30N 47°40' W 003°27'2 3.7
2018-May-21 13:00N 47°39' W 003°25'3 5.8
2018-May-21 12:30N 47°42' W 003°23'1 2.7
2018-May-21 11:58N 47°43' W 003°22'0 0.0
2018-May-20 15:32N 47°43' W 003°22'0 0.0
2018-May-20 15:29N 47°43' W 003°22'0 0.7
2018-May-20 15:00N 47°43' W 003°22'3 5.3
2018-May-20 14:30N 47°41' W 003°24'2 3.3
2018-May-20 13:59N 47°39' W 003°25'2 4.3
2018-May-20 13:29N 47°41' W 003°23'2 3.2
2018-May-20 13:00N 47°42' W 003°22'1 2.1
2018-May-20 12:28N 47°43' W 003°22'0 0.0
2018-May-19 16:47N 47°43' W 003°22'0 0.0
2018-May-19 16:29N 47°43' W 003°22'0 0.0
2018-May-19 16:00N 47°43' W 003°22'0 0.4
2018-May-19 15:31N 47°43' W 003°22'2 3.1
2018-May-19 15:01N 47°42' W 003°22'3 6.0
2018-May-19 14:30N 47°39' W 003°24'2 3.6
2018-May-19 14:00N 47°39' W 003°27'1 1.2
2018-May-19 13:30N 47°40' W 003°27'1 2.5
2018-May-19 13:00N 47°41' W 003°26'2 4.0
2018-May-19 12:30N 47°42' W 003°23'2 3.7
2018-May-19 12:00N 47°43' W 003°22'  
2018-May-15 14:40N 47°43' W 003°22'0 0.0
2018-May-15 14:28N 47°43' W 003°22'0 0.0
2018-May-15 13:58N 47°43' W 003°22'0 0.5
2018-May-15 13:30N 47°43' W 003°22'3 6.1
2018-May-15 13:00N 47°40' W 003°24'1 1.2
2018-May-15 12:30N 47°40' W 003°23'3 5.6
2018-May-15 12:00N 47°43' W 003°22'0 0.6
2018-May-15 11:30N 47°43' W 003°22'  

Dump ship's entire track history